sensor_id;sensor_type;location;lat;lon;timestamp;temperature;humidity
7360;DHT22;3720;48.274;7.796;2023-06-26T00:00:13;22.00;99.90
7360;DHT22;3720;48.274;7.796;2023-06-26T00:02:47;21.90;99.90
7360;DHT22;3720;48.274;7.796;2023-06-26T00:05:19;22.00;99.90
7360;DHT22;3720;48.274;7.796;2023-06-26T00:07:51;22.00;99.90
7360;DHT22;3720;48.274;7.796;2023-06-26T00:10:23;21.90;99.90
7360;DHT22;3720;48.274;7.796;2023-06-26T00:12:55;21.80;99.90
7360;DHT22;3720;48.274;7.796;2023-06-26T00:15:27;21.70;99.90
7360;DHT22;3720;48.274;7.796;2023-06-26T00:18:03;21.60;99.90
7360;DHT22;3720;48.274;7.796;2023-06-26T00:20:35;21.50;99.90
7360;DHT22;3720;48.274;7.796;2023-06-26T00:23:07;21.30;99.90
7360;DHT22;3720;48.274;7.796;2023-06-26T00:25:39;21.20;99.90
7360;DHT22;3720;48.274;7.796;2023-06-26T00:28:11;21.10;99.90
7360;DHT22;3720;48.274;7.796;2023-06-26T00:30:43;21.10;99.90
7360;DHT22;3720;48.274;7.796;2023-06-26T00:33:16;21.00;99.90
7360;DHT22;3720;48.274;7.796;2023-06-26T00:35:48;21.00;99.90
7360;DHT22;3720;48.274;7.796;2023-06-26T00:38:20;20.90;99.90
7360;DHT22;3720;48.274;7.796;2023-06-26T00:40:52;20.90;99.90
7360;DHT22;3720;48.274;7.796;2023-06-26T00:43:25;20.90;99.90
7360;DHT22;3720;48.274;7.796;2023-06-26T00:45:57;20.90;99.90
7360;DHT22;3720;48.274;7.796;2023-06-26T00:48:30;20.90;99.90
7360;DHT22;3720;48.274;7.796;2023-06-26T00:51:03;20.80;99.90
7360;DHT22;3720;48.274;7.796;2023-06-26T00:53:35;20.80;99.90
7360;DHT22;3720;48.274;7.796;2023-06-26T00:56:08;20.80;99.90
7360;DHT22;3720;48.274;7.796;2023-06-26T00:58:40;20.80;99.90
7360;DHT22;3720;48.274;7.796;2023-06-26T01:01:12;20.80;99.90
7360;DHT22;3720;48.274;7.796;2023-06-26T01:03:48;20.80;99.90
7360;DHT22;3720;48.274;7.796;2023-06-26T01:06:23;20.70;99.90
7360;DHT22;3720;48.274;7.796;2023-06-26T01:08:57;20.70;99.90
7360;DHT22;3720;48.274;7.796;2023-06-26T01:11:29;20.80;99.90
7360;DHT22;3720;48.274;7.796;2023-06-26T01:14:01;20.80;99.90
7360;DHT22;3720;48.274;7.796;2023-06-26T01:16:34;20.70;99.90
7360;DHT22;3720;48.274;7.796;2023-06-26T01:19:11;20.70;99.90
7360;DHT22;3720;48.274;7.796;2023-06-26T01:21:46;20.60;99.90
7360;DHT22;3720;48.274;7.796;2023-06-26T01:24:18;20.70;99.90
7360;DHT22;3720;48.274;7.796;2023-06-26T01:26:52;20.80;99.90
7360;DHT22;3720;48.274;7.796;2023-06-26T01:29:25;20.70;99.90
7360;DHT22;3720;48.274;7.796;2023-06-26T01:31:57;20.70;99.90
7360;DHT22;3720;48.274;7.796;2023-06-26T01:34:30;20.70;99.90
7360;DHT22;3720;48.274;7.796;2023-06-26T01:37:03;20.60;99.90
7360;DHT22;3720;48.274;7.796;2023-06-26T01:39:35;20.50;99.90
7360;DHT22;3720;48.274;7.796;2023-06-26T01:42:09;20.50;99.90
7360;DHT22;3720;48.274;7.796;2023-06-26T01:44:45;20.60;99.90
7360;DHT22;3720;48.274;7.796;2023-06-26T01:47:21;20.50;99.90
7360;DHT22;3720;48.274;7.796;2023-06-26T01:49:54;20.50;99.90
7360;DHT22;3720;48.274;7.796;2023-06-26T01:52:32;20.60;99.90
7360;DHT22;3720;48.274;7.796;2023-06-26T01:55:12;20.70;99.90
7360;DHT22;3720;48.274;7.796;2023-06-26T01:57:48;20.80;99.90
7360;DHT22;3720;48.274;7.796;2023-06-26T02:00:23;20.90;99.90
7360;DHT22;3720;48.274;7.796;2023-06-26T02:02:57;21.00;99.90
7360;DHT22;3720;48.274;7.796;2023-06-26T02:05:29;21.00;99.90
7360;DHT22;3720;48.274;7.796;2023-06-26T02:08:01;21.00;99.90
7360;DHT22;3720;48.274;7.796;2023-06-26T02:10:33;21.10;99.90
7360;DHT22;3720;48.274;7.796;2023-06-26T02:13:07;21.20;99.90
7360;DHT22;3720;48.274;7.796;2023-06-26T02:15:39;21.20;99.90
7360;DHT22;3720;48.274;7.796;2023-06-26T02:18:11;21.30;99.90
7360;DHT22;3720;48.274;7.796;2023-06-26T02:20:43;21.20;99.90
7360;DHT22;3720;48.274;7.796;2023-06-26T02:23:15;21.10;99.90
7360;DHT22;3720;48.274;7.796;2023-06-26T02:25:47;21.00;99.90
7360;DHT22;3720;48.274;7.796;2023-06-26T02:28:20;20.90;99.90
7360;DHT22;3720;48.274;7.796;2023-06-26T02:30:52;20.70;99.90
7360;DHT22;3720;48.274;7.796;2023-06-26T02:33:23;20.60;99.90
7360;DHT22;3720;48.274;7.796;2023-06-26T02:35:55;20.50;99.90
7360;DHT22;3720;48.274;7.796;2023-06-26T02:38:27;20.40;99.90
7360;DHT22;3720;48.274;7.796;2023-06-26T02:40:59;20.30;99.90
7360;DHT22;3720;48.274;7.796;2023-06-26T02:43:33;20.10;99.90
7360;DHT22;3720;48.274;7.796;2023-06-26T02:46:04;20.00;99.90
7360;DHT22;3720;48.274;7.796;2023-06-26T02:48:36;19.90;99.90
7360;DHT22;3720;48.274;7.796;2023-06-26T02:51:08;19.90;99.90
7360;DHT22;3720;48.274;7.796;2023-06-26T02:53:40;19.80;99.90
7360;DHT22;3720;48.274;7.796;2023-06-26T02:56:12;19.80;99.90
7360;DHT22;3720;48.274;7.796;2023-06-26T02:58:45;19.90;99.90
7360;DHT22;3720;48.274;7.796;2023-06-26T03:01:17;19.90;99.90
7360;DHT22;3720;48.274;7.796;2023-06-26T03:03:51;19.80;99.90
7360;DHT22;3720;48.274;7.796;2023-06-26T03:06:23;19.80;99.90
7360;DHT22;3720;48.274;7.796;2023-06-26T03:08:55;19.90;99.90
7360;DHT22;3720;48.274;7.796;2023-06-26T03:11:26;20.00;99.90
7360;DHT22;3720;48.274;7.796;2023-06-26T03:14:00;20.10;99.90
7360;DHT22;3720;48.274;7.796;2023-06-26T03:16:32;20.30;99.90
7360;DHT22;3720;48.274;7.796;2023-06-26T03:19:04;20.40;99.90
7360;DHT22;3720;48.274;7.796;2023-06-26T03:21:36;20.40;99.90
7360;DHT22;3720;48.274;7.796;2023-06-26T03:24:07;20.40;99.90
7360;DHT22;3720;48.274;7.796;2023-06-26T03:26:39;20.30;99.90
7360;DHT22;3720;48.274;7.796;2023-06-26T03:29:13;20.20;99.90
7360;DHT22;3720;48.274;7.796;2023-06-26T03:31:44;20.10;99.90
7360;DHT22;3720;48.274;7.796;2023-06-26T03:34:16;20.00;99.90
7360;DHT22;3720;48.274;7.796;2023-06-26T03:36:48;20.00;99.90
7360;DHT22;3720;48.274;7.796;2023-06-26T03:39:20;20.00;99.90
7360;DHT22;3720;48.274;7.796;2023-06-26T03:41:52;19.80;99.90
7360;DHT22;3720;48.274;7.796;2023-06-26T03:44:27;19.70;99.90
7360;DHT22;3720;48.274;7.796;2023-06-26T03:46:59;19.70;99.90
7360;DHT22;3720;48.274;7.796;2023-06-26T03:49:31;19.70;99.90
7360;DHT22;3720;48.274;7.796;2023-06-26T03:52:03;19.60;99.90
7360;DHT22;3720;48.274;7.796;2023-06-26T03:54:35;19.60;99.90
7360;DHT22;3720;48.274;7.796;2023-06-26T03:57:07;19.70;99.90
7360;DHT22;3720;48.274;7.796;2023-06-26T03:59:40;19.70;99.90
7360;DHT22;3720;48.274;7.796;2023-06-26T04:02:12;19.80;99.90
7360;DHT22;3720;48.274;7.796;2023-06-26T04:04:44;19.90;99.90
7360;DHT22;3720;48.274;7.796;2023-06-26T04:07:16;20.00;99.90
7360;DHT22;3720;48.274;7.796;2023-06-26T04:09:48;20.10;99.90
7360;DHT22;3720;48.274;7.796;2023-06-26T04:12:20;20.00;99.90
7360;DHT22;3720;48.274;7.796;2023-06-26T04:14:53;20.10;99.90
7360;DHT22;3720;48.274;7.796;2023-06-26T04:17:25;20.10;99.90
7360;DHT22;3720;48.274;7.796;2023-06-26T04:19:57;20.20;99.90
7360;DHT22;3720;48.274;7.796;2023-06-26T04:22:29;20.20;99.90
7360;DHT22;3720;48.274;7.796;2023-06-26T04:25:02;20.30;99.90
7360;DHT22;3720;48.274;7.796;2023-06-26T04:27:34;20.20;99.90
7360;DHT22;3720;48.274;7.796;2023-06-26T04:30:10;20.10;99.90
7360;DHT22;3720;48.274;7.796;2023-06-26T04:32:42;20.10;99.90
7360;DHT22;3720;48.274;7.796;2023-06-26T04:35:15;20.10;99.90
7360;DHT22;3720;48.274;7.796;2023-06-26T04:37:46;20.20;99.90
7360;DHT22;3720;48.274;7.796;2023-06-26T04:40:18;20.30;99.90
7360;DHT22;3720;48.274;7.796;2023-06-26T04:42:50;20.40;99.90
7360;DHT22;3720;48.274;7.796;2023-06-26T04:45:23;20.40;99.90
7360;DHT22;3720;48.274;7.796;2023-06-26T04:47:55;20.50;99.90
7360;DHT22;3720;48.274;7.796;2023-06-26T04:50:28;20.60;99.90
7360;DHT22;3720;48.274;7.796;2023-06-26T04:53:00;20.70;99.90
7360;DHT22;3720;48.274;7.796;2023-06-26T04:55:33;20.80;99.90
7360;DHT22;3720;48.274;7.796;2023-06-26T04:58:04;20.80;99.90
7360;DHT22;3720;48.274;7.796;2023-06-26T05:00:38;20.90;99.90
7360;DHT22;3720;48.274;7.796;2023-06-26T05:03:14;20.90;99.90
7360;DHT22;3720;48.274;7.796;2023-06-26T05:05:47;21.30;99.90
7360;DHT22;3720;48.274;7.796;2023-06-26T05:08:21;21.50;99.90
7360;DHT22;3720;48.274;7.796;2023-06-26T05:10:53;21.70;99.90
7360;DHT22;3720;48.274;7.796;2023-06-26T05:13:28;21.70;99.90
7360;DHT22;3720;48.274;7.796;2023-06-26T05:16:01;21.70;99.90
7360;DHT22;3720;48.274;7.796;2023-06-26T05:18:33;21.70;99.90
7360;DHT22;3720;48.274;7.796;2023-06-26T05:21:06;21.80;99.90
7360;DHT22;3720;48.274;7.796;2023-06-26T05:23:38;21.80;99.90
7360;DHT22;3720;48.274;7.796;2023-06-26T05:26:11;21.80;99.90
7360;DHT22;3720;48.274;7.796;2023-06-26T05:28:44;21.90;99.90
7360;DHT22;3720;48.274;7.796;2023-06-26T05:31:21;22.00;99.90
7360;DHT22;3720;48.274;7.796;2023-06-26T05:33:55;22.10;99.90
7360;DHT22;3720;48.274;7.796;2023-06-26T05:36:31;22.20;99.90
7360;DHT22;3720;48.274;7.796;2023-06-26T05:39:04;22.30;99.90
7360;DHT22;3720;48.274;7.796;2023-06-26T05:41:36;22.40;99.90
7360;DHT22;3720;48.274;7.796;2023-06-26T05:44:09;22.50;99.90
7360;DHT22;3720;48.274;7.796;2023-06-26T05:46:42;22.60;99.90
7360;DHT22;3720;48.274;7.796;2023-06-26T05:49:14;22.70;99.90
7360;DHT22;3720;48.274;7.796;2023-06-26T05:51:47;22.70;99.90
7360;DHT22;3720;48.274;7.796;2023-06-26T05:54:19;22.80;99.90
7360;DHT22;3720;48.274;7.796;2023-06-26T05:56:53;22.90;99.90
7360;DHT22;3720;48.274;7.796;2023-06-26T05:59:30;23.00;99.90
7360;DHT22;3720;48.274;7.796;2023-06-26T06:02:05;23.10;99.90
7360;DHT22;3720;48.274;7.796;2023-06-26T06:04:36;23.40;99.90
7360;DHT22;3720;48.274;7.796;2023-06-26T06:07:08;23.60;99.90
7360;DHT22;3720;48.274;7.796;2023-06-26T06:09:40;23.90;99.90
7360;DHT22;3720;48.274;7.796;2023-06-26T06:12:12;24.10;99.90
7360;DHT22;3720;48.274;7.796;2023-06-26T06:14:44;24.30;99.90
7360;DHT22;3720;48.274;7.796;2023-06-26T06:17:18;24.40;99.90
7360;DHT22;3720;48.274;7.796;2023-06-26T06:19:49;24.50;99.90
7360;DHT22;3720;48.274;7.796;2023-06-26T06:22:21;24.70;99.90
7360;DHT22;3720;48.274;7.796;2023-06-26T06:24:53;24.80;99.90
7360;DHT22;3720;48.274;7.796;2023-06-26T06:27:25;24.90;99.90
7360;DHT22;3720;48.274;7.796;2023-06-26T06:29:57;25.00;99.90
7360;DHT22;3720;48.274;7.796;2023-06-26T06:32:30;25.00;99.90
7360;DHT22;3720;48.274;7.796;2023-06-26T06:35:02;25.00;99.90
7360;DHT22;3720;48.274;7.796;2023-06-26T06:37:39;25.10;99.90
7360;DHT22;3720;48.274;7.796;2023-06-26T06:40:12;25.20;99.90
7360;DHT22;3720;48.274;7.796;2023-06-26T06:42:44;25.30;99.90
7360;DHT22;3720;48.274;7.796;2023-06-26T06:45:16;25.30;99.90
7360;DHT22;3720;48.274;7.796;2023-06-26T06:47:49;25.30;99.90
7360;DHT22;3720;48.274;7.796;2023-06-26T06:50:21;25.50;99.90
7360;DHT22;3720;48.274;7.796;2023-06-26T06:52:53;25.50;99.90
7360;DHT22;3720;48.274;7.796;2023-06-26T06:55:25;25.50;99.90
7360;DHT22;3720;48.274;7.796;2023-06-26T06:57:57;25.60;99.90
7360;DHT22;3720;48.274;7.796;2023-06-26T07:00:29;25.60;99.90
7360;DHT22;3720;48.274;7.796;2023-06-26T07:03:03;25.70;99.90
7360;DHT22;3720;48.274;7.796;2023-06-26T07:05:35;25.80;99.90
7360;DHT22;3720;48.274;7.796;2023-06-26T07:08:07;25.90;99.90
7360;DHT22;3720;48.274;7.796;2023-06-26T07:10:39;26.00;99.90
7360;DHT22;3720;48.274;7.796;2023-06-26T07:13:11;26.00;99.90
7360;DHT22;3720;48.274;7.796;2023-06-26T07:15:43;26.00;99.90
7360;DHT22;3720;48.274;7.796;2023-06-26T07:18:16;26.00;99.90
7360;DHT22;3720;48.274;7.796;2023-06-26T07:20:49;26.00;99.90
7360;DHT22;3720;48.274;7.796;2023-06-26T07:23:21;26.10;99.90
7360;DHT22;3720;48.274;7.796;2023-06-26T07:25:53;26.10;99.90
7360;DHT22;3720;48.274;7.796;2023-06-26T07:28:25;26.20;99.90
7360;DHT22;3720;48.274;7.796;2023-06-26T07:30:58;26.40;99.90
7360;DHT22;3720;48.274;7.796;2023-06-26T07:33:31;26.50;99.90
7360;DHT22;3720;48.274;7.796;2023-06-26T07:36:03;26.60;99.90
7360;DHT22;3720;48.274;7.796;2023-06-26T07:38:35;26.70;99.90
7360;DHT22;3720;48.274;7.796;2023-06-26T07:41:07;26.90;99.90
7360;DHT22;3720;48.274;7.796;2023-06-26T07:43:39;26.90;99.90
7360;DHT22;3720;48.274;7.796;2023-06-26T07:46:11;27.00;99.90
7360;DHT22;3720;48.274;7.796;2023-06-26T07:48:44;27.00;99.90
7360;DHT22;3720;48.274;7.796;2023-06-26T07:51:16;27.10;99.90
7360;DHT22;3720;48.274;7.796;2023-06-26T07:53:48;27.20;99.90
7360;DHT22;3720;48.274;7.796;2023-06-26T07:56:19;27.30;99.90
7360;DHT22;3720;48.274;7.796;2023-06-26T07:58:51;27.30;99.90
7360;DHT22;3720;48.274;7.796;2023-06-26T08:01:24;27.40;99.90
7360;DHT22;3720;48.274;7.796;2023-06-26T08:03:57;27.50;99.90
7360;DHT22;3720;48.274;7.796;2023-06-26T08:06:29;27.60;99.90
7360;DHT22;3720;48.274;7.796;2023-06-26T08:09:01;27.50;99.90
7360;DHT22;3720;48.274;7.796;2023-06-26T08:11:35;27.60;99.90
7360;DHT22;3720;48.274;7.796;2023-06-26T08:14:07;27.80;99.90
7360;DHT22;3720;48.274;7.796;2023-06-26T08:16:39;28.00;99.90
7360;DHT22;3720;48.274;7.796;2023-06-26T08:19:13;28.00;99.90
7360;DHT22;3720;48.274;7.796;2023-06-26T08:21:46;28.00;99.90
7360;DHT22;3720;48.274;7.796;2023-06-26T08:24:18;27.90;99.90
7360;DHT22;3720;48.274;7.796;2023-06-26T08:26:50;27.80;99.90
7360;DHT22;3720;48.274;7.796;2023-06-26T08:29:22;27.70;99.90
7360;DHT22;3720;48.274;7.796;2023-06-26T08:31:54;27.70;99.90
7360;DHT22;3720;48.274;7.796;2023-06-26T08:34:27;27.80;99.90
7360;DHT22;3720;48.274;7.796;2023-06-26T08:36:59;27.90;99.90
7360;DHT22;3720;48.274;7.796;2023-06-26T08:39:31;27.80;99.90
7360;DHT22;3720;48.274;7.796;2023-06-26T08:42:03;27.90;99.90
7360;DHT22;3720;48.274;7.796;2023-06-26T08:44:35;28.00;99.90
7360;DHT22;3720;48.274;7.796;2023-06-26T08:47:08;28.10;99.90
7360;DHT22;3720;48.274;7.796;2023-06-26T08:49:47;28.20;99.90
7360;DHT22;3720;48.274;7.796;2023-06-26T08:52:23;28.40;99.90
7360;DHT22;3720;48.274;7.796;2023-06-26T08:54:58;28.50;99.90
7360;DHT22;3720;48.274;7.796;2023-06-26T08:57:30;28.50;99.90
7360;DHT22;3720;48.274;7.796;2023-06-26T09:00:05;28.60;99.90
7360;DHT22;3720;48.274;7.796;2023-06-26T09:02:39;28.80;99.90
7360;DHT22;3720;48.274;7.796;2023-06-26T09:05:14;28.90;99.90
7360;DHT22;3720;48.274;7.796;2023-06-26T09:07:46;29.10;99.90
7360;DHT22;3720;48.274;7.796;2023-06-26T09:10:18;29.20;99.90
7360;DHT22;3720;48.274;7.796;2023-06-26T09:12:50;29.30;99.90
7360;DHT22;3720;48.274;7.796;2023-06-26T09:15:26;29.20;99.90
7360;DHT22;3720;48.274;7.796;2023-06-26T09:17:59;29.10;99.90
7360;DHT22;3720;48.274;7.796;2023-06-26T09:20:32;29.10;99.90
7360;DHT22;3720;48.274;7.796;2023-06-26T09:23:04;29.10;99.90
7360;DHT22;3720;48.274;7.796;2023-06-26T09:25:38;29.00;99.90
7360;DHT22;3720;48.274;7.796;2023-06-26T09:28:11;28.90;99.90
7360;DHT22;3720;48.274;7.796;2023-06-26T09:30:45;28.80;99.90
7360;DHT22;3720;48.274;7.796;2023-06-26T09:33:18;28.70;99.90
7360;DHT22;3720;48.274;7.796;2023-06-26T09:35:52;28.80;99.90
7360;DHT22;3720;48.274;7.796;2023-06-26T09:38:24;28.60;99.90
7360;DHT22;3720;48.274;7.796;2023-06-26T09:40:56;28.70;99.90
7360;DHT22;3720;48.274;7.796;2023-06-26T09:43:28;28.70;99.90
7360;DHT22;3720;48.274;7.796;2023-06-26T09:46:02;28.80;99.90
7360;DHT22;3720;48.274;7.796;2023-06-26T09:48:34;28.80;99.90
7360;DHT22;3720;48.274;7.796;2023-06-26T09:51:09;28.80;99.90
7360;DHT22;3720;48.274;7.796;2023-06-26T09:53:42;28.70;99.90
7360;DHT22;3720;48.274;7.796;2023-06-26T09:56:15;28.60;99.90
7360;DHT22;3720;48.274;7.796;2023-06-26T09:58:49;28.50;99.90
7360;DHT22;3720;48.274;7.796;2023-06-26T10:01:21;28.40;99.90
7360;DHT22;3720;48.274;7.796;2023-06-26T10:03:54;28.40;99.90
7360;DHT22;3720;48.274;7.796;2023-06-26T10:06:33;28.40;99.90
7360;DHT22;3720;48.274;7.796;2023-06-26T10:09:07;28.40;99.90
7360;DHT22;3720;48.274;7.796;2023-06-26T10:11:44;28.50;99.90
7360;DHT22;3720;48.274;7.796;2023-06-26T10:14:17;28.70;99.90
7360;DHT22;3720;48.274;7.796;2023-06-26T10:16:50;29.00;99.90
7360;DHT22;3720;48.274;7.796;2023-06-26T10:19:23;29.20;99.90
7360;DHT22;3720;48.274;7.796;2023-06-26T10:21:58;29.40;99.90
7360;DHT22;3720;48.274;7.796;2023-06-26T10:24:33;29.70;99.90
7360;DHT22;3720;48.274;7.796;2023-06-26T10:27:17;29.90;99.90
7360;DHT22;3720;48.274;7.796;2023-06-26T10:29:53;30.10;99.90
7360;DHT22;3720;48.274;7.796;2023-06-26T10:32:26;30.30;99.90
7360;DHT22;3720;48.274;7.796;2023-06-26T10:34:59;30.40;99.90
7360;DHT22;3720;48.274;7.796;2023-06-26T10:37:50;30.40;99.90
7360;DHT22;3720;48.274;7.796;2023-06-26T10:40:25;30.50;99.90
7360;DHT22;3720;48.274;7.796;2023-06-26T10:43:07;30.60;99.90
7360;DHT22;3720;48.274;7.796;2023-06-26T10:45:43;30.80;99.90
7360;DHT22;3720;48.274;7.796;2023-06-26T10:48:16;31.00;99.90
7360;DHT22;3720;48.274;7.796;2023-06-26T10:50:48;31.00;99.90
7360;DHT22;3720;48.274;7.796;2023-06-26T10:53:25;30.80;99.90
7360;DHT22;3720;48.274;7.796;2023-06-26T10:55:59;30.80;99.90
7360;DHT22;3720;48.274;7.796;2023-06-26T10:58:33;30.60;99.90
7360;DHT22;3720;48.274;7.796;2023-06-26T11:01:19;30.60;99.90
7360;DHT22;3720;48.274;7.796;2023-06-26T11:04:04;30.50;99.90
7360;DHT22;3720;48.274;7.796;2023-06-26T11:06:38;30.50;99.90
7360;DHT22;3720;48.274;7.796;2023-06-26T11:09:15;30.50;99.90
7360;DHT22;3720;48.274;7.796;2023-06-26T11:11:59;30.70;99.90
7360;DHT22;3720;48.274;7.796;2023-06-26T11:14:35;30.80;99.90
7360;DHT22;3720;48.274;7.796;2023-06-26T11:17:07;30.70;99.90
7360;DHT22;3720;48.274;7.796;2023-06-26T11:19:43;30.70;99.90
7360;DHT22;3720;48.274;7.796;2023-06-26T11:22:15;30.70;99.90
7360;DHT22;3720;48.274;7.796;2023-06-26T11:24:49;30.80;99.90
7360;DHT22;3720;48.274;7.796;2023-06-26T11:27:22;30.80;99.90
7360;DHT22;3720;48.274;7.796;2023-06-26T11:29:54;30.90;99.90
7360;DHT22;3720;48.274;7.796;2023-06-26T11:32:27;30.70;99.90
7360;DHT22;3720;48.274;7.796;2023-06-26T11:35:00;30.70;99.90
7360;DHT22;3720;48.274;7.796;2023-06-26T11:37:31;30.70;99.90
7360;DHT22;3720;48.274;7.796;2023-06-26T11:40:18;30.60;99.90
7360;DHT22;3720;48.274;7.796;2023-06-26T11:42:50;30.50;99.90
7360;DHT22;3720;48.274;7.796;2023-06-26T11:45:22;30.50;99.90
7360;DHT22;3720;48.274;7.796;2023-06-26T11:47:54;30.60;99.90
7360;DHT22;3720;48.274;7.796;2023-06-26T11:50:27;30.90;99.90
7360;DHT22;3720;48.274;7.796;2023-06-26T11:52:59;31.10;99.80
7360;DHT22;3720;48.274;7.796;2023-06-26T11:55:41;31.00;99.30
7360;DHT22;3720;48.274;7.796;2023-06-26T11:58:14;31.10;99.60
7360;DHT22;3720;48.274;7.796;2023-06-26T12:00:47;31.10;98.30
7360;DHT22;3720;48.274;7.796;2023-06-26T12:03:19;31.30;99.00
7360;DHT22;3720;48.274;7.796;2023-06-26T12:05:51;31.50;96.80
7360;DHT22;3720;48.274;7.796;2023-06-26T12:08:25;31.60;96.10
7360;DHT22;3720;48.274;7.796;2023-06-26T12:10:59;31.40;94.90
7360;DHT22;3720;48.274;7.796;2023-06-26T12:13:31;31.50;96.10
7360;DHT22;3720;48.274;7.796;2023-06-26T12:16:03;31.70;94.00
7360;DHT22;3720;48.274;7.796;2023-06-26T12:18:35;31.80;94.50
7360;DHT22;3720;48.274;7.796;2023-06-26T12:21:07;31.90;93.40
7360;DHT22;3720;48.274;7.796;2023-06-26T12:23:39;31.90;92.00
7360;DHT22;3720;48.274;7.796;2023-06-26T12:26:19;31.90;91.20
7360;DHT22;3720;48.274;7.796;2023-06-26T12:28:52;31.80;90.30
7360;DHT22;3720;48.274;7.796;2023-06-26T12:31:23;31.90;91.50
7360;DHT22;3720;48.274;7.796;2023-06-26T12:33:56;32.00;90.10
7360;DHT22;3720;48.274;7.796;2023-06-26T12:36:28;32.10;90.20
7360;DHT22;3720;48.274;7.796;2023-06-26T12:39:01;32.30;89.10
7360;DHT22;3720;48.274;7.796;2023-06-26T12:41:34;32.40;86.40
7360;DHT22;3720;48.274;7.796;2023-06-26T12:44:16;32.30;82.10
7360;DHT22;3720;48.274;7.796;2023-06-26T12:46:53;32.30;86.20
7360;DHT22;3720;48.274;7.796;2023-06-26T12:49:32;32.30;83.00
7360;DHT22;3720;48.274;7.796;2023-06-26T12:52:06;32.30;82.20
7360;DHT22;3720;48.274;7.796;2023-06-26T12:54:40;32.30;82.60
7360;DHT22;3720;48.274;7.796;2023-06-26T12:57:14;32.50;81.00
7360;DHT22;3720;48.274;7.796;2023-06-26T12:59:46;32.50;78.20
7360;DHT22;3720;48.274;7.796;2023-06-26T13:02:18;32.70;81.50
7360;DHT22;3720;48.274;7.796;2023-06-26T13:04:50;32.80;77.30
7360;DHT22;3720;48.274;7.796;2023-06-26T13:07:22;32.80;76.70
7360;DHT22;3720;48.274;7.796;2023-06-26T13:09:56;32.60;75.20
7360;DHT22;3720;48.274;7.796;2023-06-26T13:12:29;32.40;75.20
7360;DHT22;3720;48.274;7.796;2023-06-26T13:15:01;32.30;74.90
7360;DHT22;3720;48.274;7.796;2023-06-26T13:17:33;32.10;74.50
7360;DHT22;3720;48.274;7.796;2023-06-26T13:20:06;32.10;74.50
7360;DHT22;3720;48.274;7.796;2023-06-26T13:22:38;31.90;73.60
7360;DHT22;3720;48.274;7.796;2023-06-26T13:25:10;31.80;72.90
7360;DHT22;3720;48.274;7.796;2023-06-26T13:27:44;31.80;74.30
7360;DHT22;3720;48.274;7.796;2023-06-26T13:30:16;31.60;74.10
7360;DHT22;3720;48.274;7.796;2023-06-26T13:32:48;31.60;76.70
7360;DHT22;3720;48.274;7.796;2023-06-26T13:35:20;31.70;73.80
7360;DHT22;3720;48.274;7.796;2023-06-26T13:37:52;31.50;75.00
7360;DHT22;3720;48.274;7.796;2023-06-26T13:40:24;31.30;76.00
7360;DHT22;3720;48.274;7.796;2023-06-26T13:42:57;31.20;74.30
7360;DHT22;3720;48.274;7.796;2023-06-26T13:45:29;31.00;74.00
7360;DHT22;3720;48.274;7.796;2023-06-26T13:48:01;31.10;74.50
7360;DHT22;3720;48.274;7.796;2023-06-26T13:50:32;31.30;76.50
7360;DHT22;3720;48.274;7.796;2023-06-26T13:53:04;31.50;75.00
7360;DHT22;3720;48.274;7.796;2023-06-26T13:55:36;31.90;75.50
7360;DHT22;3720;48.274;7.796;2023-06-26T13:58:10;32.10;74.70
7360;DHT22;3720;48.274;7.796;2023-06-26T14:00:43;32.30;71.30
7360;DHT22;3720;48.274;7.796;2023-06-26T14:03:15;32.50;72.00
7360;DHT22;3720;48.274;7.796;2023-06-26T14:05:48;32.70;70.60
7360;DHT22;3720;48.274;7.796;2023-06-26T14:08:20;32.70;69.60
7360;DHT22;3720;48.274;7.796;2023-06-26T14:10:52;32.50;69.30
7360;DHT22;3720;48.274;7.796;2023-06-26T14:13:25;32.30;71.30
7360;DHT22;3720;48.274;7.796;2023-06-26T14:15:57;32.00;72.30
7360;DHT22;3720;48.274;7.796;2023-06-26T14:18:29;31.80;71.60
7360;DHT22;3720;48.274;7.796;2023-06-26T14:21:01;31.90;71.00
7360;DHT22;3720;48.274;7.796;2023-06-26T14:23:33;32.10;74.60
7360;DHT22;3720;48.274;7.796;2023-06-26T14:26:05;32.30;71.10
7360;DHT22;3720;48.274;7.796;2023-06-26T14:28:38;32.50;69.80
7360;DHT22;3720;48.274;7.796;2023-06-26T14:31:10;32.50;69.00
7360;DHT22;3720;48.274;7.796;2023-06-26T14:33:42;32.70;67.30
7360;DHT22;3720;48.274;7.796;2023-06-26T14:36:14;32.90;69.00
7360;DHT22;3720;48.274;7.796;2023-06-26T14:38:46;33.10;66.00
7360;DHT22;3720;48.274;7.796;2023-06-26T14:41:18;33.20;66.00
7360;DHT22;3720;48.274;7.796;2023-06-26T14:43:51;33.20;66.00
7360;DHT22;3720;48.274;7.796;2023-06-26T14:46:24;33.40;64.20
7360;DHT22;3720;48.274;7.796;2023-06-26T14:48:56;33.50;64.00
7360;DHT22;3720;48.274;7.796;2023-06-26T14:51:27;33.20;64.20
7360;DHT22;3720;48.274;7.796;2023-06-26T14:54:00;32.90;66.00
7360;DHT22;3720;48.274;7.796;2023-06-26T14:56:32;32.80;63.60
7360;DHT22;3720;48.274;7.796;2023-06-26T14:59:05;32.70;62.70
7360;DHT22;3720;48.274;7.796;2023-06-26T15:01:37;32.60;64.70
7360;DHT22;3720;48.274;7.796;2023-06-26T15:04:09;32.70;62.60
7360;DHT22;3720;48.274;7.796;2023-06-26T15:06:42;32.60;63.60
7360;DHT22;3720;48.274;7.796;2023-06-26T15:09:13;32.40;61.70
7360;DHT22;3720;48.274;7.796;2023-06-26T15:11:45;32.30;65.90
7360;DHT22;3720;48.274;7.796;2023-06-26T15:14:18;32.40;63.30
7360;DHT22;3720;48.274;7.796;2023-06-26T15:16:50;32.60;61.50
7360;DHT22;3720;48.274;7.796;2023-06-26T15:19:22;32.70;63.10
7360;DHT22;3720;48.274;7.796;2023-06-26T15:21:54;32.80;61.80
7360;DHT22;3720;48.274;7.796;2023-06-26T15:24:26;32.80;60.50
7360;DHT22;3720;48.274;7.796;2023-06-26T15:26:58;33.00;60.40
7360;DHT22;3720;48.274;7.796;2023-06-26T15:29:31;32.80;60.20
7360;DHT22;3720;48.274;7.796;2023-06-26T15:32:04;32.70;60.50
7360;DHT22;3720;48.274;7.796;2023-06-26T15:34:36;32.50;59.80
7360;DHT22;3720;48.274;7.796;2023-06-26T15:37:08;32.50;60.00
7360;DHT22;3720;48.274;7.796;2023-06-26T15:39:40;32.40;62.00
7360;DHT22;3720;48.274;7.796;2023-06-26T15:42:11;32.30;61.60
7360;DHT22;3720;48.274;7.796;2023-06-26T15:44:45;32.00;61.10
7360;DHT22;3720;48.274;7.796;2023-06-26T15:47:16;31.90;61.60
7360;DHT22;3720;48.274;7.796;2023-06-26T15:49:48;31.80;62.10
7360;DHT22;3720;48.274;7.796;2023-06-26T15:52:20;31.80;61.70
7360;DHT22;3720;48.274;7.796;2023-06-26T15:54:52;31.70;61.00
7360;DHT22;3720;48.274;7.796;2023-06-26T15:57:24;31.60;60.70
7360;DHT22;3720;48.274;7.796;2023-06-26T15:59:57;31.60;61.80
7360;DHT22;3720;48.274;7.796;2023-06-26T16:02:30;31.40;61.40
7360;DHT22;3720;48.274;7.796;2023-06-26T16:05:03;31.10;61.20
7360;DHT22;3720;48.274;7.796;2023-06-26T16:07:35;31.00;63.00
7360;DHT22;3720;48.274;7.796;2023-06-26T16:10:08;30.80;63.60
7360;DHT22;3720;48.274;7.796;2023-06-26T16:12:40;30.70;63.90
7360;DHT22;3720;48.274;7.796;2023-06-26T16:15:13;30.60;64.70
7360;DHT22;3720;48.274;7.796;2023-06-26T16:17:45;30.50;64.50
7360;DHT22;3720;48.274;7.796;2023-06-26T16:20:17;30.40;64.20
7360;DHT22;3720;48.274;7.796;2023-06-26T16:22:49;30.30;65.20
7360;DHT22;3720;48.274;7.796;2023-06-26T16:25:21;30.20;65.40
7360;DHT22;3720;48.274;7.796;2023-06-26T16:27:53;30.20;66.00
7360;DHT22;3720;48.274;7.796;2023-06-26T16:30:26;30.10;66.10
7360;DHT22;3720;48.274;7.796;2023-06-26T16:33:00;30.10;65.80
7360;DHT22;3720;48.274;7.796;2023-06-26T16:35:31;30.10;65.40
7360;DHT22;3720;48.274;7.796;2023-06-26T16:38:05;30.10;65.90